Impacts METAR Board
IDs:

KMNZ - Hamilton Muni, TX, US

Updated at: 1900 UTC 16 Oct 2021
Potential Impact None Slight Moderate High
Time 16/07Z 16/08Z 16/09Z 16/10Z 16/11Z 16/12Z 16/13Z 16/14Z 16/15Z 16/16Z 16/17Z 16/18Z 16/19Z
Temp54 54 50 49 48 47 45 56 63 66 68 71 71
Dewpt41 41 40 41 40 40 40 45 40 37 32 31 30
Altim30.31 30.33 30.32 30.32 30.33 30.35 30.38 30.39 30.41 30.43 30.43 30.41 30.38
VIS10 10 10 10 10 10 10 10 10 10 10 10 10
CIG-- -- -- -- -- -- -- -- -- -- -- -- --
CoverCLRCLRCLRCLRCLRCLRCLRCLRCLRCLRCLRCLRCLR
FltCatVFRVFRVFRVFRVFRVFRVFRVFRVFRVFRVFRVFRVFR
WX--------------------------
WDir201003503603103203503040605040
WSpd5 6 0 5 4 3 5 4 9 8 11 12 12
WGst-- -- -- -- -- -- -- -- -- -- 17 17 20
Raw hourly METARs
KMNZ 160655Z AUTO 02005KT 10SM CLR 12/05 A3031 RMK AO2 T01200048
KMNZ 160755Z AUTO 01006KT 10SM CLR 12/05 A3033 RMK AO2 T01200050
KMNZ 160855Z AUTO 00000KT 10SM CLR 10/05 A3032 RMK AO2 T00990046
KMNZ 160955Z AUTO 35005KT 10SM CLR 09/05 A3032 RMK AO2 T00920050
KMNZ 161055Z AUTO 36004KT 10SM CLR 09/05 A3033 RMK AO2 T00870046
KMNZ 161155Z AUTO 31003KT 10SM CLR 08/04 A3035 RMK AO2 T00810043 10128 20081
KMNZ 161255Z AUTO 32005KT 10SM CLR 07/04 A3038 RMK AO2 T00740042
KMNZ 161355Z AUTO 35004KT 10SM CLR 13/07 A3039 RMK AO2 T01320074
KMNZ 161455Z AUTO 03009KT 10SM CLR 17/05 A3041 RMK AO2 T01700045
KMNZ 161555Z AUTO 04008KT 10SM CLR 19/03 A3043 RMK AO2 T01900026
KMNZ 161655Z AUTO 06011G17KT 10SM CLR 20/00 A3043 RMK AO2 T02001002
KMNZ 161755Z AUTO 05012G17KT 10SM CLR 22/M01 A3041 RMK AO2 T02161006 10216 20071
KMNZ 161855Z AUTO 04012G20KT 10SM CLR 22/M01 A3038 RMK AO2 T02161011